Sexsmith, Canada
Current Conditions -  °F | °C
As of 2:00 PM on Friday 24 Oct 2014 (Local Time) from CYQU Reporting Station
Scattered Clouds Scattered Clouds  
Wind Chill: 38°   Ceiling: Unl
Heat Index: 46°   Visibility: 25mi
Dew Point: 30°   Wind: 28mph
Humidity: 53%   Direction: 260°W
Pressure: 29.86"   Gusts: 36mph
Location:  55.35°N, 118.78°W
Report Text: CYQU 242000Z 26024G31KT 25SM FEW160 SCT210 08/M01 A2986 RMK AC2CI2 SLP137
Loading
Personal Weather Stations






























Interactive Weather Map
Tropical Storm Tracking
New forecast layout! Learn more

10-Day Weather Forecast

Advertisements
Track Severe Weather on mobile